sensor_id;sensor_type;location;lat;lon;timestamp;P1;durP1;ratioP1;P2;durP2;ratioP2
8285;SDS011;4181;43.416;24.598;2022-12-18T00:00:40;24.07;;;17.07;;
8285;SDS011;4181;43.416;24.598;2022-12-18T00:03:06;22.47;;;15.33;;
8285;SDS011;4181;43.416;24.598;2022-12-18T00:05:32;22.90;;;15.47;;
8285;SDS011;4181;43.416;24.598;2022-12-18T00:07:57;25.37;;;16.10;;
8285;SDS011;4181;43.416;24.598;2022-12-18T00:10:23;22.47;;;15.40;;
8285;SDS011;4181;43.416;24.598;2022-12-18T00:12:48;21.57;;;14.60;;
8285;SDS011;4181;43.416;24.598;2022-12-18T00:15:14;22.23;;;15.93;;
8285;SDS011;4181;43.416;24.598;2022-12-18T00:17:39;24.43;;;15.50;;
8285;SDS011;4181;43.416;24.598;2022-12-18T00:20:05;23.03;;;14.73;;
8285;SDS011;4181;43.416;24.598;2022-12-18T00:22:31;22.27;;;15.40;;
8285;SDS011;4181;43.416;24.598;2022-12-18T00:24:56;24.70;;;15.67;;
8285;SDS011;4181;43.416;24.598;2022-12-18T00:27:21;24.27;;;14.93;;
8285;SDS011;4181;43.416;24.598;2022-12-18T00:29:47;23.73;;;16.27;;
8285;SDS011;4181;43.416;24.598;2022-12-18T00:32:13;23.90;;;15.20;;
8285;SDS011;4181;43.416;24.598;2022-12-18T00:34:39;23.27;;;15.30;;
8285;SDS011;4181;43.416;24.598;2022-12-18T00:37:04;20.53;;;14.57;;
8285;SDS011;4181;43.416;24.598;2022-12-18T00:39:30;24.80;;;15.23;;
8285;SDS011;4181;43.416;24.598;2022-12-18T00:41:55;22.00;;;14.40;;
8285;SDS011;4181;43.416;24.598;2022-12-18T00:44:39;22.97;;;15.63;;
8285;SDS011;4181;43.416;24.598;2022-12-18T00:47:06;23.20;;;15.70;;
8285;SDS011;4181;43.416;24.598;2022-12-18T00:49:31;20.83;;;14.17;;
8285;SDS011;4181;43.416;24.598;2022-12-18T00:51:57;25.93;;;15.13;;
8285;SDS011;4181;43.416;24.598;2022-12-18T00:54:22;22.10;;;16.00;;
8285;SDS011;4181;43.416;24.598;2022-12-18T00:56:48;22.83;;;15.30;;
8285;SDS011;4181;43.416;24.598;2022-12-18T00:59:13;23.73;;;14.77;;
8285;SDS011;4181;43.416;24.598;2022-12-18T01:01:42;23.37;;;14.87;;
8285;SDS011;4181;43.416;24.598;2022-12-18T01:04:07;21.87;;;15.00;;
8285;SDS011;4181;43.416;24.598;2022-12-18T01:06:33;19.57;;;14.47;;
8285;SDS011;4181;43.416;24.598;2022-12-18T01:08:58;24.93;;;17.40;;
8285;SDS011;4181;43.416;24.598;2022-12-18T01:11:24;21.77;;;14.93;;
8285;SDS011;4181;43.416;24.598;2022-12-18T01:13:51;21.70;;;15.70;;
8285;SDS011;4181;43.416;24.598;2022-12-18T01:16:17;21.97;;;14.73;;
8285;SDS011;4181;43.416;24.598;2022-12-18T01:18:44;23.57;;;15.93;;
8285;SDS011;4181;43.416;24.598;2022-12-18T01:21:10;22.20;;;14.83;;
8285;SDS011;4181;43.416;24.598;2022-12-18T01:23:40;20.60;;;14.17;;
8285;SDS011;4181;43.416;24.598;2022-12-18T01:26:08;22.03;;;14.77;;
8285;SDS011;4181;43.416;24.598;2022-12-18T01:28:36;21.20;;;14.60;;
8285;SDS011;4181;43.416;24.598;2022-12-18T01:33:44;24.13;;;14.67;;
8285;SDS011;4181;43.416;24.598;2022-12-18T01:38:50;20.97;;;13.93;;
8285;SDS011;4181;43.416;24.598;2022-12-18T01:41:18;21.83;;;14.33;;
8285;SDS011;4181;43.416;24.598;2022-12-18T01:46:18;18.80;;;13.77;;
8285;SDS011;4181;43.416;24.598;2022-12-18T01:48:47;18.57;;;14.03;;
8285;SDS011;4181;43.416;24.598;2022-12-18T01:51:14;17.93;;;13.67;;
8285;SDS011;4181;43.416;24.598;2022-12-18T01:53:41;19.23;;;13.77;;
8285;SDS011;4181;43.416;24.598;2022-12-18T01:56:10;18.77;;;14.53;;
8285;SDS011;4181;43.416;24.598;2022-12-18T02:01:15;21.63;;;14.50;;
8285;SDS011;4181;43.416;24.598;2022-12-18T02:03:42;18.83;;;14.07;;
8285;SDS011;4181;43.416;24.598;2022-12-18T02:06:13;19.73;;;13.33;;
8285;SDS011;4181;43.416;24.598;2022-12-18T02:17:04;18.43;;;13.97;;
8285;SDS011;4181;43.416;24.598;2022-12-18T02:19:39;20.00;;;13.53;;
8285;SDS011;4181;43.416;24.598;2022-12-18T02:27:37;18.70;;;14.00;;
8285;SDS011;4181;43.416;24.598;2022-12-18T02:30:04;18.03;;;13.93;;
8285;SDS011;4181;43.416;24.598;2022-12-18T02:32:33;18.37;;;13.77;;
8285;SDS011;4181;43.416;24.598;2022-12-18T02:35:02;23.83;;;14.27;;
8285;SDS011;4181;43.416;24.598;2022-12-18T02:37:30;19.23;;;14.10;;
8285;SDS011;4181;43.416;24.598;2022-12-18T02:39:58;19.97;;;14.23;;
8285;SDS011;4181;43.416;24.598;2022-12-18T02:42:25;20.77;;;14.50;;
8285;SDS011;4181;43.416;24.598;2022-12-18T02:44:52;19.90;;;14.43;;
8285;SDS011;4181;43.416;24.598;2022-12-18T02:47:19;21.47;;;14.87;;
8285;SDS011;4181;43.416;24.598;2022-12-18T02:52:57;22.50;;;14.87;;
8285;SDS011;4181;43.416;24.598;2022-12-18T03:01:35;22.33;;;15.27;;
8285;SDS011;4181;43.416;24.598;2022-12-18T03:06:49;20.77;;;14.90;;
8285;SDS011;4181;43.416;24.598;2022-12-18T03:09:24;21.80;;;15.60;;
8285;SDS011;4181;43.416;24.598;2022-12-18T03:12:22;26.30;;;16.20;;
8285;SDS011;4181;43.416;24.598;2022-12-18T03:17:29;24.60;;;17.30;;
8285;SDS011;4181;43.416;24.598;2022-12-18T03:19:58;25.83;;;17.53;;
8285;SDS011;4181;43.416;24.598;2022-12-18T03:22:28;28.97;;;18.63;;
8285;SDS011;4181;43.416;24.598;2022-12-18T03:24:57;27.87;;;19.20;;
8285;SDS011;4181;43.416;24.598;2022-12-18T03:27:26;30.40;;;19.63;;
8285;SDS011;4181;43.416;24.598;2022-12-18T03:29:56;32.30;;;20.40;;
8285;SDS011;4181;43.416;24.598;2022-12-18T03:32:33;30.77;;;20.53;;
8285;SDS011;4181;43.416;24.598;2022-12-18T03:35:06;36.43;;;21.30;;
8285;SDS011;4181;43.416;24.598;2022-12-18T03:37:35;31.53;;;21.00;;
8285;SDS011;4181;43.416;24.598;2022-12-18T03:40:01;33.47;;;22.30;;
8285;SDS011;4181;43.416;24.598;2022-12-18T03:45:28;34.40;;;23.87;;
8285;SDS011;4181;43.416;24.598;2022-12-18T03:48:01;35.73;;;23.13;;
8285;SDS011;4181;43.416;24.598;2022-12-18T03:53:17;33.97;;;22.80;;
8285;SDS011;4181;43.416;24.598;2022-12-18T03:55:59;34.43;;;22.50;;
8285;SDS011;4181;43.416;24.598;2022-12-18T03:58:26;34.17;;;21.83;;
8285;SDS011;4181;43.416;24.598;2022-12-18T04:00:54;31.93;;;21.17;;
8285;SDS011;4181;43.416;24.598;2022-12-18T04:03:24;33.80;;;22.13;;
8285;SDS011;4181;43.416;24.598;2022-12-18T04:05:52;34.63;;;22.40;;
8285;SDS011;4181;43.416;24.598;2022-12-18T04:08:20;30.93;;;21.00;;
8285;SDS011;4181;43.416;24.598;2022-12-18T04:10:47;33.50;;;22.00;;
8285;SDS011;4181;43.416;24.598;2022-12-18T04:13:13;30.13;;;20.57;;
8285;SDS011;4181;43.416;24.598;2022-12-18T04:15:47;37.40;;;23.77;;
8285;SDS011;4181;43.416;24.598;2022-12-18T04:18:12;36.57;;;23.73;;
8285;SDS011;4181;43.416;24.598;2022-12-18T04:20:38;35.43;;;22.57;;
8285;SDS011;4181;43.416;24.598;2022-12-18T04:23:03;38.77;;;24.07;;
8285;SDS011;4181;43.416;24.598;2022-12-18T04:25:29;39.83;;;25.40;;
8285;SDS011;4181;43.416;24.598;2022-12-18T04:27:54;39.87;;;24.93;;
8285;SDS011;4181;43.416;24.598;2022-12-18T04:30:19;41.43;;;24.73;;
8285;SDS011;4181;43.416;24.598;2022-12-18T04:32:45;32.70;;;22.30;;
8285;SDS011;4181;43.416;24.598;2022-12-18T04:35:10;36.83;;;23.77;;
8285;SDS011;4181;43.416;24.598;2022-12-18T04:37:37;35.87;;;22.67;;
8285;SDS011;4181;43.416;24.598;2022-12-18T04:40:02;35.47;;;23.07;;
8285;SDS011;4181;43.416;24.598;2022-12-18T04:42:28;35.90;;;23.87;;
8285;SDS011;4181;43.416;24.598;2022-12-18T04:44:53;39.50;;;24.43;;
8285;SDS011;4181;43.416;24.598;2022-12-18T04:47:19;37.37;;;25.40;;
8285;SDS011;4181;43.416;24.598;2022-12-18T04:49:44;36.07;;;24.00;;
8285;SDS011;4181;43.416;24.598;2022-12-18T04:52:09;33.50;;;22.57;;
8285;SDS011;4181;43.416;24.598;2022-12-18T04:54:35;34.13;;;22.87;;
8285;SDS011;4181;43.416;24.598;2022-12-18T04:57:00;36.00;;;24.30;;
8285;SDS011;4181;43.416;24.598;2022-12-18T04:59:26;40.10;;;25.57;;
8285;SDS011;4181;43.416;24.598;2022-12-18T05:01:51;37.23;;;24.47;;
8285;SDS011;4181;43.416;24.598;2022-12-18T05:04:17;41.37;;;25.57;;
8285;SDS011;4181;43.416;24.598;2022-12-18T05:06:42;37.70;;;24.50;;
8285;SDS011;4181;43.416;24.598;2022-12-18T05:09:08;38.17;;;23.93;;
8285;SDS011;4181;43.416;24.598;2022-12-18T05:11:33;46.87;;;24.37;;
8285;SDS011;4181;43.416;24.598;2022-12-18T05:14:01;37.93;;;25.60;;
8285;SDS011;4181;43.416;24.598;2022-12-18T05:16:27;40.67;;;25.00;;
8285;SDS011;4181;43.416;24.598;2022-12-18T05:18:52;34.83;;;23.77;;
8285;SDS011;4181;43.416;24.598;2022-12-18T05:21:18;35.53;;;22.90;;
8285;SDS011;4181;43.416;24.598;2022-12-18T05:23:43;34.33;;;22.23;;
8285;SDS011;4181;43.416;24.598;2022-12-18T05:26:09;40.20;;;25.10;;
8285;SDS011;4181;43.416;24.598;2022-12-18T05:28:39;36.23;;;23.70;;
8285;SDS011;4181;43.416;24.598;2022-12-18T05:31:05;38.83;;;24.77;;
8285;SDS011;4181;43.416;24.598;2022-12-18T05:33:31;34.37;;;23.87;;
8285;SDS011;4181;43.416;24.598;2022-12-18T05:35:59;38.83;;;23.87;;
8285;SDS011;4181;43.416;24.598;2022-12-18T05:38:29;37.07;;;23.87;;
8285;SDS011;4181;43.416;24.598;2022-12-18T05:40:56;37.43;;;23.30;;
8285;SDS011;4181;43.416;24.598;2022-12-18T05:43:22;35.33;;;23.10;;
8285;SDS011;4181;43.416;24.598;2022-12-18T05:45:49;43.40;;;27.37;;
8285;SDS011;4181;43.416;24.598;2022-12-18T05:48:16;39.87;;;24.70;;
8285;SDS011;4181;43.416;24.598;2022-12-18T05:50:43;37.10;;;23.73;;
8285;SDS011;4181;43.416;24.598;2022-12-18T05:53:10;36.50;;;24.07;;
8285;SDS011;4181;43.416;24.598;2022-12-18T05:55:37;37.50;;;23.70;;
8285;SDS011;4181;43.416;24.598;2022-12-18T05:58:05;38.57;;;25.93;;
8285;SDS011;4181;43.416;24.598;2022-12-18T06:00:34;38.37;;;23.40;;
8285;SDS011;4181;43.416;24.598;2022-12-18T06:03:01;38.17;;;23.93;;
8285;SDS011;4181;43.416;24.598;2022-12-18T06:05:27;33.90;;;22.33;;
8285;SDS011;4181;43.416;24.598;2022-12-18T06:07:53;34.83;;;23.07;;
8285;SDS011;4181;43.416;24.598;2022-12-18T06:10:18;36.57;;;23.23;;
8285;SDS011;4181;43.416;24.598;2022-12-18T06:12:44;35.00;;;22.70;;
8285;SDS011;4181;43.416;24.598;2022-12-18T06:15:10;36.10;;;23.77;;
8285;SDS011;4181;43.416;24.598;2022-12-18T06:17:35;31.07;;;21.60;;
8285;SDS011;4181;43.416;24.598;2022-12-18T06:20:01;33.03;;;22.00;;
8285;SDS011;4181;43.416;24.598;2022-12-18T06:22:26;35.60;;;22.93;;
8285;SDS011;4181;43.416;24.598;2022-12-18T06:24:52;36.07;;;23.57;;
8285;SDS011;4181;43.416;24.598;2022-12-18T06:27:18;44.67;;;25.57;;
8285;SDS011;4181;43.416;24.598;2022-12-18T06:29:44;37.37;;;23.30;;
8285;SDS011;4181;43.416;24.598;2022-12-18T06:32:10;37.53;;;23.63;;
8285;SDS011;4181;43.416;24.598;2022-12-18T06:34:39;33.33;;;22.27;;
8285;SDS011;4181;43.416;24.598;2022-12-18T06:37:04;37.10;;;23.13;;
8285;SDS011;4181;43.416;24.598;2022-12-18T06:39:30;35.87;;;22.73;;
8285;SDS011;4181;43.416;24.598;2022-12-18T06:41:55;35.70;;;22.33;;
8285;SDS011;4181;43.416;24.598;2022-12-18T06:44:24;34.83;;;23.00;;
8285;SDS011;4181;43.416;24.598;2022-12-18T06:46:49;35.27;;;22.73;;
8285;SDS011;4181;43.416;24.598;2022-12-18T06:49:14;35.97;;;22.17;;
8285;SDS011;4181;43.416;24.598;2022-12-18T06:51:41;34.60;;;22.50;;
8285;SDS011;4181;43.416;24.598;2022-12-18T06:54:06;41.93;;;22.20;;
8285;SDS011;4181;43.416;24.598;2022-12-18T06:56:33;36.97;;;22.67;;
8285;SDS011;4181;43.416;24.598;2022-12-18T06:58:59;36.07;;;22.87;;
8285;SDS011;4181;43.416;24.598;2022-12-18T07:01:24;34.73;;;22.27;;
8285;SDS011;4181;43.416;24.598;2022-12-18T07:03:54;32.90;;;21.53;;
8285;SDS011;4181;43.416;24.598;2022-12-18T07:06:21;32.50;;;21.17;;
8285;SDS011;4181;43.416;24.598;2022-12-18T07:08:49;34.73;;;23.20;;
8285;SDS011;4181;43.416;24.598;2022-12-18T07:11:15;34.17;;;22.33;;
8285;SDS011;4181;43.416;24.598;2022-12-18T07:13:48;32.67;;;21.00;;
8285;SDS011;4181;43.416;24.598;2022-12-18T07:16:15;31.33;;;20.20;;
8285;SDS011;4181;43.416;24.598;2022-12-18T07:18:42;32.50;;;20.13;;
8285;SDS011;4181;43.416;24.598;2022-12-18T07:21:09;32.37;;;20.40;;
8285;SDS011;4181;43.416;24.598;2022-12-18T07:23:36;33.70;;;21.57;;
8285;SDS011;4181;43.416;24.598;2022-12-18T07:26:12;28.87;;;19.80;;
8285;SDS011;4181;43.416;24.598;2022-12-18T07:28:41;32.33;;;21.67;;
8285;SDS011;4181;43.416;24.598;2022-12-18T07:31:11;33.47;;;21.60;;
8285;SDS011;4181;43.416;24.598;2022-12-18T07:33:39;32.37;;;21.00;;
8285;SDS011;4181;43.416;24.598;2022-12-18T07:36:06;33.47;;;21.43;;
8285;SDS011;4181;43.416;24.598;2022-12-18T07:38:33;29.83;;;20.43;;
8285;SDS011;4181;43.416;24.598;2022-12-18T07:41:08;38.00;;;22.17;;
8285;SDS011;4181;43.416;24.598;2022-12-18T07:43:35;36.70;;;21.57;;
8285;SDS011;4181;43.416;24.598;2022-12-18T07:46:01;30.77;;;20.47;;
8285;SDS011;4181;43.416;24.598;2022-12-18T07:48:28;33.37;;;20.90;;
8285;SDS011;4181;43.416;24.598;2022-12-18T07:50:58;31.43;;;20.43;;
8285;SDS011;4181;43.416;24.598;2022-12-18T07:53:24;32.93;;;20.87;;
8285;SDS011;4181;43.416;24.598;2022-12-18T07:55:54;32.47;;;22.60;;
8285;SDS011;4181;43.416;24.598;2022-12-18T07:58:23;31.80;;;20.50;;
8285;SDS011;4181;43.416;24.598;2022-12-18T08:00:48;28.07;;;19.83;;
8285;SDS011;4181;43.416;24.598;2022-12-18T08:03:14;28.33;;;19.63;;
8285;SDS011;4181;43.416;24.598;2022-12-18T08:05:39;35.23;;;21.77;;
8285;SDS011;4181;43.416;24.598;2022-12-18T08:08:05;31.63;;;21.77;;
8285;SDS011;4181;43.416;24.598;2022-12-18T08:10:30;34.17;;;22.60;;
8285;SDS011;4181;43.416;24.598;2022-12-18T08:12:56;36.50;;;21.20;;
8285;SDS011;4181;43.416;24.598;2022-12-18T08:15:21;36.17;;;22.17;;
8285;SDS011;4181;43.416;24.598;2022-12-18T08:17:47;33.17;;;23.50;;
8285;SDS011;4181;43.416;24.598;2022-12-18T08:20:12;34.70;;;22.83;;
8285;SDS011;4181;43.416;24.598;2022-12-18T08:22:43;34.37;;;22.10;;
8285;SDS011;4181;43.416;24.598;2022-12-18T08:25:09;32.03;;;20.93;;
8285;SDS011;4181;43.416;24.598;2022-12-18T08:27:35;40.03;;;25.63;;
8285;SDS011;4181;43.416;24.598;2022-12-18T08:30:01;40.73;;;25.13;;
8285;SDS011;4181;43.416;24.598;2022-12-18T08:32:27;27.80;;;20.63;;
8285;SDS011;4181;43.416;24.598;2022-12-18T08:34:53;29.53;;;20.67;;
8285;SDS011;4181;43.416;24.598;2022-12-18T08:37:19;27.83;;;19.77;;
8285;SDS011;4181;43.416;24.598;2022-12-18T08:39:44;32.50;;;21.43;;
8285;SDS011;4181;43.416;24.598;2022-12-18T08:42:10;30.13;;;21.30;;
8285;SDS011;4181;43.416;24.598;2022-12-18T08:44:54;30.67;;;20.27;;
8285;SDS011;4181;43.416;24.598;2022-12-18T08:47:19;29.50;;;20.20;;
8285;SDS011;4181;43.416;24.598;2022-12-18T08:49:44;29.67;;;20.03;;
8285;SDS011;4181;43.416;24.598;2022-12-18T08:52:10;29.17;;;20.40;;
8285;SDS011;4181;43.416;24.598;2022-12-18T08:54:41;30.00;;;21.13;;
8285;SDS011;4181;43.416;24.598;2022-12-18T08:57:06;28.50;;;19.40;;
8285;SDS011;4181;43.416;24.598;2022-12-18T08:59:31;30.07;;;19.60;;
8285;SDS011;4181;43.416;24.598;2022-12-18T09:01:57;27.03;;;18.77;;
8285;SDS011;4181;43.416;24.598;2022-12-18T09:04:22;27.93;;;19.57;;
8285;SDS011;4181;43.416;24.598;2022-12-18T09:06:48;30.40;;;18.93;;
8285;SDS011;4181;43.416;24.598;2022-12-18T09:09:14;28.83;;;19.13;;
8285;SDS011;4181;43.416;24.598;2022-12-18T09:11:40;28.63;;;19.73;;
8285;SDS011;4181;43.416;24.598;2022-12-18T09:14:06;32.47;;;20.67;;
8285;SDS011;4181;43.416;24.598;2022-12-18T09:16:32;25.27;;;18.60;;
8285;SDS011;4181;43.416;24.598;2022-12-18T09:18:59;30.47;;;19.03;;
8285;SDS011;4181;43.416;24.598;2022-12-18T09:21:27;27.70;;;18.90;;
8285;SDS011;4181;43.416;24.598;2022-12-18T09:23:54;25.20;;;17.83;;
8285;SDS011;4181;43.416;24.598;2022-12-18T09:26:21;31.00;;;17.63;;
8285;SDS011;4181;43.416;24.598;2022-12-18T09:28:47;23.77;;;16.67;;
8285;SDS011;4181;43.416;24.598;2022-12-18T09:31:12;25.40;;;18.03;;
8285;SDS011;4181;43.416;24.598;2022-12-18T09:33:38;23.60;;;16.70;;
8285;SDS011;4181;43.416;24.598;2022-12-18T09:36:05;23.83;;;16.57;;
8285;SDS011;4181;43.416;24.598;2022-12-18T09:38:32;28.07;;;19.50;;
8285;SDS011;4181;43.416;24.598;2022-12-18T09:41:05;24.03;;;18.03;;
8285;SDS011;4181;43.416;24.598;2022-12-18T09:43:46;28.30;;;17.60;;
8285;SDS011;4181;43.416;24.598;2022-12-18T09:46:28;24.33;;;17.40;;
8285;SDS011;4181;43.416;24.598;2022-12-18T09:48:59;24.67;;;18.03;;
8285;SDS011;4181;43.416;24.598;2022-12-18T09:51:32;26.10;;;18.30;;
8285;SDS011;4181;43.416;24.598;2022-12-18T09:54:10;23.73;;;16.50;;
8285;SDS011;4181;43.416;24.598;2022-12-18T09:56:40;27.77;;;17.60;;
8285;SDS011;4181;43.416;24.598;2022-12-18T09:59:14;32.73;;;17.77;;
8285;SDS011;4181;43.416;24.598;2022-12-18T10:02:19;25.10;;;17.13;;
8285;SDS011;4181;43.416;24.598;2022-12-18T10:04:50;27.40;;;17.90;;
8285;SDS011;4181;43.416;24.598;2022-12-18T10:10:53;28.37;;;18.37;;
8285;SDS011;4181;43.416;24.598;2022-12-18T10:13:31;25.07;;;16.90;;
8285;SDS011;4181;43.416;24.598;2022-12-18T10:21:32;25.77;;;16.97;;
8285;SDS011;4181;43.416;24.598;2022-12-18T10:26:50;30.43;;;19.80;;
8285;SDS011;4181;43.416;24.598;2022-12-18T10:29:18;27.27;;;18.47;;
8285;SDS011;4181;43.416;24.598;2022-12-18T10:31:44;31.83;;;20.73;;
8285;SDS011;4181;43.416;24.598;2022-12-18T10:34:13;35.00;;;19.83;;
8285;SDS011;4181;43.416;24.598;2022-12-18T10:36:38;28.70;;;19.33;;
8285;SDS011;4181;43.416;24.598;2022-12-18T10:39:14;26.53;;;17.63;;
8285;SDS011;4181;43.416;24.598;2022-12-18T10:41:47;30.53;;;18.43;;
8285;SDS011;4181;43.416;24.598;2022-12-18T10:44:18;26.43;;;17.60;;
8285;SDS011;4181;43.416;24.598;2022-12-18T10:46:49;25.63;;;18.17;;
8285;SDS011;4181;43.416;24.598;2022-12-18T10:49:19;26.87;;;17.07;;
8285;SDS011;4181;43.416;24.598;2022-12-18T10:51:48;26.23;;;17.53;;
8285;SDS011;4181;43.416;24.598;2022-12-18T10:54:19;26.37;;;17.43;;
8285;SDS011;4181;43.416;24.598;2022-12-18T10:56:47;27.20;;;18.80;;
8285;SDS011;4181;43.416;24.598;2022-12-18T10:59:14;25.00;;;17.37;;
8285;SDS011;4181;43.416;24.598;2022-12-18T11:04:22;26.33;;;17.97;;
8285;SDS011;4181;43.416;24.598;2022-12-18T11:06:57;27.47;;;17.80;;
8285;SDS011;4181;43.416;24.598;2022-12-18T11:09:24;28.27;;;17.33;;
8285;SDS011;4181;43.416;24.598;2022-12-18T11:11:58;29.23;;;18.13;;
8285;SDS011;4181;43.416;24.598;2022-12-18T11:14:30;28.53;;;18.13;;
8285;SDS011;4181;43.416;24.598;2022-12-18T11:16:59;26.07;;;17.33;;
8285;SDS011;4181;43.416;24.598;2022-12-18T11:19:35;26.17;;;16.73;;
8285;SDS011;4181;43.416;24.598;2022-12-18T11:22:25;28.77;;;16.70;;
8285;SDS011;4181;43.416;24.598;2022-12-18T11:25:25;23.07;;;15.97;;
8285;SDS011;4181;43.416;24.598;2022-12-18T11:27:58;28.20;;;17.10;;
8285;SDS011;4181;43.416;24.598;2022-12-18T11:30:44;25.87;;;16.87;;
8285;SDS011;4181;43.416;24.598;2022-12-18T11:33:11;26.23;;;17.93;;
8285;SDS011;4181;43.416;24.598;2022-12-18T11:38:24;24.67;;;16.23;;
8285;SDS011;4181;43.416;24.598;2022-12-18T11:44:27;20.77;;;13.90;;
8285;SDS011;4181;43.416;24.598;2022-12-18T11:47:00;23.33;;;14.50;;
8285;SDS011;4181;43.416;24.598;2022-12-18T11:49:32;19.17;;;12.73;;
8285;SDS011;4181;43.416;24.598;2022-12-18T11:52:04;20.10;;;11.90;;
8285;SDS011;4181;43.416;24.598;2022-12-18T11:54:31;17.87;;;11.33;;
8285;SDS011;4181;43.416;24.598;2022-12-18T11:57:09;18.07;;;12.00;;
8285;SDS011;4181;43.416;24.598;2022-12-18T12:05:58;19.93;;;12.50;;
8285;SDS011;4181;43.416;24.598;2022-12-18T12:26:01;23.87;;;14.80;;
8285;SDS011;4181;43.416;24.598;2022-12-18T12:34:25;28.43;;;17.20;;
8285;SDS011;4181;43.416;24.598;2022-12-18T12:39:22;24.40;;;13.33;;
8285;SDS011;4181;43.416;24.598;2022-12-18T12:41:53;18.00;;;12.27;;
8285;SDS011;4181;43.416;24.598;2022-12-18T12:44:41;24.60;;;13.43;;
8285;SDS011;4181;43.416;24.598;2022-12-18T12:47:20;17.63;;;11.77;;
8285;SDS011;4181;43.416;24.598;2022-12-18T12:49:50;26.97;;;13.90;;
8285;SDS011;4181;43.416;24.598;2022-12-18T12:52:24;22.37;;;13.60;;
8285;SDS011;4181;43.416;24.598;2022-12-18T12:54:59;19.30;;;12.97;;
8285;SDS011;4181;43.416;24.598;2022-12-18T12:57:32;21.77;;;13.90;;
8285;SDS011;4181;43.416;24.598;2022-12-18T13:00:08;34.33;;;19.30;;
8285;SDS011;4181;43.416;24.598;2022-12-18T13:05:31;19.73;;;13.57;;
8285;SDS011;4181;43.416;24.598;2022-12-18T13:08:01;23.20;;;14.77;;
8285;SDS011;4181;43.416;24.598;2022-12-18T13:20:42;29.47;;;16.07;;
8285;SDS011;4181;43.416;24.598;2022-12-18T13:31:14;23.20;;;13.70;;
8285;SDS011;4181;43.416;24.598;2022-12-18T13:36:46;22.03;;;13.77;;
8285;SDS011;4181;43.416;24.598;2022-12-18T13:39:23;23.63;;;15.17;;
8285;SDS011;4181;43.416;24.598;2022-12-18T13:44:36;21.77;;;13.37;;
8285;SDS011;4181;43.416;24.598;2022-12-18T13:47:07;27.93;;;15.93;;
8285;SDS011;4181;43.416;24.598;2022-12-18T13:49:53;25.20;;;15.53;;
8285;SDS011;4181;43.416;24.598;2022-12-18T13:52:20;25.97;;;16.60;;
8285;SDS011;4181;43.416;24.598;2022-12-18T13:54:57;32.10;;;19.93;;
8285;SDS011;4181;43.416;24.598;2022-12-18T13:57:32;38.03;;;22.50;;
8285;SDS011;4181;43.416;24.598;2022-12-18T14:00:45;35.23;;;24.97;;
8285;SDS011;4181;43.416;24.598;2022-12-18T14:02:51;33.00;;;20.20;;
8285;SDS011;4181;43.416;24.598;2022-12-18T14:05:35;28.37;;;19.23;;
8285;SDS011;4181;43.416;24.598;2022-12-18T14:08:05;22.47;;;14.50;;
8285;SDS011;4181;43.416;24.598;2022-12-18T14:10:39;24.37;;;16.50;;
8285;SDS011;4181;43.416;24.598;2022-12-18T14:13:06;32.93;;;19.10;;
8285;SDS011;4181;43.416;24.598;2022-12-18T14:15:35;34.57;;;21.00;;
8285;SDS011;4181;43.416;24.598;2022-12-18T14:20:46;26.53;;;18.20;;
8285;SDS011;4181;43.416;24.598;2022-12-18T14:26:24;33.27;;;19.23;;
8285;SDS011;4181;43.416;24.598;2022-12-18T14:28:53;34.63;;;18.77;;
8285;SDS011;4181;43.416;24.598;2022-12-18T14:31:20;28.43;;;17.33;;
8285;SDS011;4181;43.416;24.598;2022-12-18T14:33:47;26.20;;;16.17;;
8285;SDS011;4181;43.416;24.598;2022-12-18T14:36:17;24.03;;;15.30;;
8285;SDS011;4181;43.416;24.598;2022-12-18T14:38:49;35.67;;;18.97;;
8285;SDS011;4181;43.416;24.598;2022-12-18T14:41:26;35.50;;;19.60;;
8285;SDS011;4181;43.416;24.598;2022-12-18T14:43:54;26.40;;;17.07;;
8285;SDS011;4181;43.416;24.598;2022-12-18T14:46:35;27.17;;;17.33;;
8285;SDS011;4181;43.416;24.598;2022-12-18T14:49:04;39.93;;;22.93;;
8285;SDS011;4181;43.416;24.598;2022-12-18T14:51:46;40.17;;;24.57;;
8285;SDS011;4181;43.416;24.598;2022-12-18T14:54:19;38.67;;;24.13;;
8285;SDS011;4181;43.416;24.598;2022-12-18T14:57:03;32.03;;;20.87;;
8285;SDS011;4181;43.416;24.598;2022-12-18T14:59:30;30.83;;;17.60;;
8285;SDS011;4181;43.416;24.598;2022-12-18T15:05:05;31.83;;;19.00;;
8285;SDS011;4181;43.416;24.598;2022-12-18T15:07:54;31.10;;;20.50;;
8285;SDS011;4181;43.416;24.598;2022-12-18T15:10:34;34.47;;;21.13;;
8285;SDS011;4181;43.416;24.598;2022-12-18T15:18:11;32.27;;;19.97;;
8285;SDS011;4181;43.416;24.598;2022-12-18T15:20:41;24.80;;;14.83;;
8285;SDS011;4181;43.416;24.598;2022-12-18T15:26:06;25.20;;;14.93;;
8285;SDS011;4181;43.416;24.598;2022-12-18T15:31:06;22.00;;;14.87;;
8285;SDS011;4181;43.416;24.598;2022-12-18T15:33:37;25.83;;;16.67;;
8285;SDS011;4181;43.416;24.598;2022-12-18T15:36:11;25.70;;;17.17;;
8285;SDS011;4181;43.416;24.598;2022-12-18T15:38:48;29.43;;;19.93;;
8285;SDS011;4181;43.416;24.598;2022-12-18T15:41:15;29.33;;;17.73;;
8285;SDS011;4181;43.416;24.598;2022-12-18T15:43:41;30.40;;;18.43;;
8285;SDS011;4181;43.416;24.598;2022-12-18T15:48:47;26.60;;;19.37;;
8285;SDS011;4181;43.416;24.598;2022-12-18T15:51:34;36.87;;;22.60;;
8285;SDS011;4181;43.416;24.598;2022-12-18T15:54:02;34.83;;;19.37;;
8285;SDS011;4181;43.416;24.598;2022-12-18T15:56:30;30.70;;;19.63;;
8285;SDS011;4181;43.416;24.598;2022-12-18T15:59:16;46.77;;;30.97;;
8285;SDS011;4181;43.416;24.598;2022-12-18T16:01:44;61.23;;;37.93;;
8285;SDS011;4181;43.416;24.598;2022-12-18T16:04:12;32.90;;;24.13;;
8285;SDS011;4181;43.416;24.598;2022-12-18T16:06:39;52.37;;;36.50;;
8285;SDS011;4181;43.416;24.598;2022-12-18T16:09:06;36.63;;;23.77;;
8285;SDS011;4181;43.416;24.598;2022-12-18T16:11:32;29.07;;;20.40;;
8285;SDS011;4181;43.416;24.598;2022-12-18T16:14:27;86.43;;;61.83;;
8285;SDS011;4181;43.416;24.598;2022-12-18T16:16:58;139.57;;;95.60;;
8285;SDS011;4181;43.416;24.598;2022-12-18T16:19:25;137.40;;;85.37;;
8285;SDS011;4181;43.416;24.598;2022-12-18T16:21:52;104.80;;;69.37;;
8285;SDS011;4181;43.416;24.598;2022-12-18T16:24:24;108.50;;;72.50;;
8285;SDS011;4181;43.416;24.598;2022-12-18T16:26:52;59.50;;;37.40;;
8285;SDS011;4181;43.416;24.598;2022-12-18T16:29:18;40.97;;;25.77;;
8285;SDS011;4181;43.416;24.598;2022-12-18T16:31:49;36.70;;;24.03;;
8285;SDS011;4181;43.416;24.598;2022-12-18T16:34:18;57.60;;;33.17;;
8285;SDS011;4181;43.416;24.598;2022-12-18T16:36:50;45.37;;;24.73;;
8285;SDS011;4181;43.416;24.598;2022-12-18T16:39:18;32.97;;;21.27;;
8285;SDS011;4181;43.416;24.598;2022-12-18T16:41:44;31.63;;;19.57;;
8285;SDS011;4181;43.416;24.598;2022-12-18T16:44:10;28.13;;;17.27;;
8285;SDS011;4181;43.416;24.598;2022-12-18T16:46:35;46.60;;;26.37;;
8285;SDS011;4181;43.416;24.598;2022-12-18T16:49:02;73.03;;;37.97;;
8285;SDS011;4181;43.416;24.598;2022-12-18T16:51:28;97.93;;;56.80;;
8285;SDS011;4181;43.416;24.598;2022-12-18T16:53:54;112.73;;;59.20;;
8285;SDS011;4181;43.416;24.598;2022-12-18T16:56:20;97.40;;;52.87;;
8285;SDS011;4181;43.416;24.598;2022-12-18T16:58:49;83.27;;;43.60;;
8285;SDS011;4181;43.416;24.598;2022-12-18T17:01:19;46.70;;;27.50;;
8285;SDS011;4181;43.416;24.598;2022-12-18T17:03:54;54.73;;;29.50;;
8285;SDS011;4181;43.416;24.598;2022-12-18T17:06:25;71.23;;;39.67;;
8285;SDS011;4181;43.416;24.598;2022-12-18T17:08:55;64.83;;;37.53;;
8285;SDS011;4181;43.416;24.598;2022-12-18T17:11:26;84.97;;;47.83;;